sensor_id;sensor_type;location;lat;lon;timestamp;pressure;altitude;pressure_sealevel;temperature;humidity
50464;BME280;62167;38.552;-121.478;2022-07-12T00:01:21;100712.50;;;37.82;20.85
50464;BME280;62167;38.552;-121.478;2022-07-12T00:03:47;100715.56;;;37.89;21.14
50464;BME280;62167;38.552;-121.478;2022-07-12T00:06:14;100703.50;;;37.89;20.98
50464;BME280;62167;38.552;-121.478;2022-07-12T00:08:40;100710.53;;;37.83;21.17
50464;BME280;62167;38.552;-121.478;2022-07-12T00:11:06;100702.38;;;37.81;20.98
50464;BME280;62167;38.552;-121.478;2022-07-12T00:13:32;100717.53;;;37.77;20.56
50464;BME280;62167;38.552;-121.478;2022-07-12T00:15:59;100711.19;;;37.80;21.22
50464;BME280;62167;38.552;-121.478;2022-07-12T00:18:25;100716.22;;;37.74;20.82
50464;BME280;62167;38.552;-121.478;2022-07-12T00:20:51;100713.72;;;37.60;20.53
50464;BME280;62167;38.552;-121.478;2022-07-12T00:23:18;100720.06;;;37.57;20.99
50464;BME280;62167;38.552;-121.478;2022-07-12T00:25:44;100721.25;;;37.56;21.00
50464;BME280;62167;38.552;-121.478;2022-07-12T00:28:10;100710.09;;;37.48;20.52
50464;BME280;62167;38.552;-121.478;2022-07-12T00:30:36;100708.09;;;37.48;20.86
50464;BME280;62167;38.552;-121.478;2022-07-12T00:33:02;100708.44;;;37.47;21.07
50464;BME280;62167;38.552;-121.478;2022-07-12T00:35:29;100702.69;;;37.43;21.00
50464;BME280;62167;38.552;-121.478;2022-07-12T00:37:55;100706.31;;;37.44;20.77
50464;BME280;62167;38.552;-121.478;2022-07-12T00:40:21;100703.06;;;37.42;20.80
50464;BME280;62167;38.552;-121.478;2022-07-12T00:42:48;100702.16;;;37.29;20.67
50464;BME280;62167;38.552;-121.478;2022-07-12T00:45:14;100698.53;;;37.28;21.54
50464;BME280;62167;38.552;-121.478;2022-07-12T00:47:43;100695.59;;;37.25;20.70
50464;BME280;62167;38.552;-121.478;2022-07-12T00:50:17;100691.50;;;37.22;21.38
50464;BME280;62167;38.552;-121.478;2022-07-12T00:52:45;100692.88;;;37.16;21.74
50464;BME280;62167;38.552;-121.478;2022-07-12T00:55:12;100691.44;;;37.10;21.40
50464;BME280;62167;38.552;-121.478;2022-07-12T00:57:39;100691.66;;;37.05;21.82
50464;BME280;62167;38.552;-121.478;2022-07-12T01:00:09;100697.63;;;37.03;22.31
50464;BME280;62167;38.552;-121.478;2022-07-12T01:02:36;100694.88;;;36.95;21.72
50464;BME280;62167;38.552;-121.478;2022-07-12T01:05:07;100696.44;;;36.83;21.78
50464;BME280;62167;38.552;-121.478;2022-07-12T01:07:35;100692.78;;;36.71;21.82
50464;BME280;62167;38.552;-121.478;2022-07-12T01:10:03;100691.25;;;36.73;22.28
50464;BME280;62167;38.552;-121.478;2022-07-12T01:12:30;100694.81;;;36.61;22.60
50464;BME280;62167;38.552;-121.478;2022-07-12T01:14:56;100687.88;;;36.59;22.66
50464;BME280;62167;38.552;-121.478;2022-07-12T01:17:24;100694.19;;;36.56;22.75
50464;BME280;62167;38.552;-121.478;2022-07-12T01:19:53;100689.13;;;36.49;22.76
50464;BME280;62167;38.552;-121.478;2022-07-12T01:22:25;100696.81;;;36.31;23.38
50464;BME280;62167;38.552;-121.478;2022-07-12T01:24:52;100690.22;;;36.27;23.62
50464;BME280;62167;38.552;-121.478;2022-07-12T01:27:19;100688.28;;;36.19;23.69
50464;BME280;62167;38.552;-121.478;2022-07-12T01:29:45;100690.34;;;36.10;23.74
50464;BME280;62167;38.552;-121.478;2022-07-12T01:32:11;100683.91;;;36.09;24.32
50464;BME280;62167;38.552;-121.478;2022-07-12T01:37:28;100691.09;;;35.90;24.15
50464;BME280;62167;38.552;-121.478;2022-07-12T01:39:55;100682.16;;;35.87;23.95
50464;BME280;62167;38.552;-121.478;2022-07-12T01:42:23;100691.94;;;35.81;24.90
50464;BME280;62167;38.552;-121.478;2022-07-12T01:44:51;100684.38;;;35.73;24.66
50464;BME280;62167;38.552;-121.478;2022-07-12T01:47:18;100683.94;;;35.63;24.16
50464;BME280;62167;38.552;-121.478;2022-07-12T01:49:45;100676.06;;;35.47;23.77
50464;BME280;62167;38.552;-121.478;2022-07-12T01:52:12;100688.09;;;35.48;24.31
50464;BME280;62167;38.552;-121.478;2022-07-12T01:54:39;100682.00;;;35.37;24.51
50464;BME280;62167;38.552;-121.478;2022-07-12T01:57:06;100681.88;;;35.33;24.75
50464;BME280;62167;38.552;-121.478;2022-07-12T01:59:33;100686.97;;;35.31;24.47
50464;BME280;62167;38.552;-121.478;2022-07-12T02:02:00;100681.72;;;35.21;24.28
50464;BME280;62167;38.552;-121.478;2022-07-12T02:04:27;100688.66;;;35.15;23.95
50464;BME280;62167;38.552;-121.478;2022-07-12T02:06:54;100690.81;;;35.01;24.24
50464;BME280;62167;38.552;-121.478;2022-07-12T02:09:24;100690.47;;;34.94;24.71
50464;BME280;62167;38.552;-121.478;2022-07-12T02:11:50;100687.84;;;34.89;24.33
50464;BME280;62167;38.552;-121.478;2022-07-12T02:14:17;100693.25;;;34.85;25.25
50464;BME280;62167;38.552;-121.478;2022-07-12T02:16:43;100686.19;;;34.79;24.73
50464;BME280;62167;38.552;-121.478;2022-07-12T02:19:11;100685.84;;;34.72;24.48
50464;BME280;62167;38.552;-121.478;2022-07-12T02:21:38;100681.38;;;34.62;24.83
50464;BME280;62167;38.552;-121.478;2022-07-12T02:24:05;100683.53;;;34.56;25.51
50464;BME280;62167;38.552;-121.478;2022-07-12T02:26:36;100685.19;;;34.49;25.84
50464;BME280;62167;38.552;-121.478;2022-07-12T02:29:03;100672.13;;;34.36;25.68
50464;BME280;62167;38.552;-121.478;2022-07-12T02:31:30;100673.91;;;34.31;25.80
50464;BME280;62167;38.552;-121.478;2022-07-12T02:33:57;100676.38;;;34.24;25.76
50464;BME280;62167;38.552;-121.478;2022-07-12T02:36:24;100679.63;;;34.09;26.46
50464;BME280;62167;38.552;-121.478;2022-07-12T02:38:50;100671.56;;;33.99;25.79
50464;BME280;62167;38.552;-121.478;2022-07-12T02:41:17;100671.34;;;33.87;25.88
50464;BME280;62167;38.552;-121.478;2022-07-12T02:43:43;100675.09;;;33.82;26.35
50464;BME280;62167;38.552;-121.478;2022-07-12T02:46:11;100672.41;;;33.68;26.03
50464;BME280;62167;38.552;-121.478;2022-07-12T02:48:38;100677.63;;;33.61;25.55
50464;BME280;62167;38.552;-121.478;2022-07-12T02:51:06;100675.38;;;33.41;26.27
50464;BME280;62167;38.552;-121.478;2022-07-12T02:53:34;100677.41;;;33.26;26.79
50464;BME280;62167;38.552;-121.478;2022-07-12T02:56:00;100675.25;;;33.23;26.33
50464;BME280;62167;38.552;-121.478;2022-07-12T02:58:27;100676.72;;;33.21;27.44
50464;BME280;62167;38.552;-121.478;2022-07-12T03:00:53;100680.41;;;33.08;26.94
50464;BME280;62167;38.552;-121.478;2022-07-12T03:03:19;100670.81;;;33.00;27.35
50464;BME280;62167;38.552;-121.478;2022-07-12T03:05:46;100680.47;;;32.94;28.16
50464;BME280;62167;38.552;-121.478;2022-07-12T03:08:13;100685.97;;;32.85;28.45
50464;BME280;62167;38.552;-121.478;2022-07-12T03:10:39;100686.25;;;32.84;28.58
50464;BME280;62167;38.552;-121.478;2022-07-12T03:13:06;100680.63;;;32.75;27.57
50464;BME280;62167;38.552;-121.478;2022-07-12T03:15:33;100688.72;;;32.63;28.31
50464;BME280;62167;38.552;-121.478;2022-07-12T03:18:00;100695.75;;;32.60;28.18
50464;BME280;62167;38.552;-121.478;2022-07-12T03:20:29;100678.72;;;32.48;28.73
50464;BME280;62167;38.552;-121.478;2022-07-12T03:22:56;100691.25;;;32.37;28.32
50464;BME280;62167;38.552;-121.478;2022-07-12T03:25:23;100697.53;;;32.28;28.89
50464;BME280;62167;38.552;-121.478;2022-07-12T03:27:50;100690.03;;;32.15;29.40
50464;BME280;62167;38.552;-121.478;2022-07-12T03:30:16;100690.84;;;32.02;29.40
50464;BME280;62167;38.552;-121.478;2022-07-12T03:32:43;100692.81;;;32.01;28.02
50464;BME280;62167;38.552;-121.478;2022-07-12T03:35:10;100695.19;;;31.94;28.83
50464;BME280;62167;38.552;-121.478;2022-07-12T03:37:45;100693.72;;;31.83;28.85
50464;BME280;62167;38.552;-121.478;2022-07-12T03:40:13;100691.44;;;31.71;29.31
50464;BME280;62167;38.552;-121.478;2022-07-12T03:42:41;100695.13;;;31.67;29.32
50464;BME280;62167;38.552;-121.478;2022-07-12T03:45:08;100692.25;;;31.58;29.94
50464;BME280;62167;38.552;-121.478;2022-07-12T03:47:35;100690.25;;;31.45;29.12
50464;BME280;62167;38.552;-121.478;2022-07-12T03:50:07;100697.25;;;31.29;29.32
50464;BME280;62167;38.552;-121.478;2022-07-12T03:52:34;100700.66;;;31.20;29.44
50464;BME280;62167;38.552;-121.478;2022-07-12T03:55:00;100697.31;;;31.05;29.79
50464;BME280;62167;38.552;-121.478;2022-07-12T03:57:29;100709.34;;;31.00;30.03
50464;BME280;62167;38.552;-121.478;2022-07-12T03:59:56;100703.13;;;30.89;29.62
50464;BME280;62167;38.552;-121.478;2022-07-12T04:02:23;100704.19;;;30.74;30.24
50464;BME280;62167;38.552;-121.478;2022-07-12T04:04:50;100713.47;;;30.65;30.66
50464;BME280;62167;38.552;-121.478;2022-07-12T04:07:16;100711.66;;;30.55;31.01
50464;BME280;62167;38.552;-121.478;2022-07-12T04:09:43;100719.81;;;30.52;30.08
50464;BME280;62167;38.552;-121.478;2022-07-12T04:12:09;100721.94;;;30.36;30.40
50464;BME280;62167;38.552;-121.478;2022-07-12T04:14:35;100723.44;;;30.28;30.46
50464;BME280;62167;38.552;-121.478;2022-07-12T04:17:02;100725.28;;;30.14;30.58
50464;BME280;62167;38.552;-121.478;2022-07-12T04:19:28;100727.84;;;30.05;30.55
50464;BME280;62167;38.552;-121.478;2022-07-12T04:21:57;100734.13;;;29.92;31.20
50464;BME280;62167;38.552;-121.478;2022-07-12T04:24:24;100734.75;;;29.84;31.13
50464;BME280;62167;38.552;-121.478;2022-07-12T04:26:50;100737.28;;;29.80;31.64
50464;BME280;62167;38.552;-121.478;2022-07-12T04:29:17;100742.38;;;29.73;31.33
50464;BME280;62167;38.552;-121.478;2022-07-12T04:31:44;100753.31;;;29.59;31.64
50464;BME280;62167;38.552;-121.478;2022-07-12T04:34:10;100748.13;;;29.47;31.79
50464;BME280;62167;38.552;-121.478;2022-07-12T04:36:37;100750.66;;;29.44;31.72
50464;BME280;62167;38.552;-121.478;2022-07-12T04:39:03;100761.06;;;29.28;32.27
50464;BME280;62167;38.552;-121.478;2022-07-12T04:41:30;100759.09;;;29.29;33.14
50464;BME280;62167;38.552;-121.478;2022-07-12T04:43:56;100756.44;;;29.13;32.48
50464;BME280;62167;38.552;-121.478;2022-07-12T04:46:22;100766.00;;;28.92;32.58
50464;BME280;62167;38.552;-121.478;2022-07-12T04:48:49;100765.75;;;28.88;33.07
50464;BME280;62167;38.552;-121.478;2022-07-12T04:51:15;100761.38;;;28.77;33.08
50464;BME280;62167;38.552;-121.478;2022-07-12T04:53:42;100777.00;;;28.58;33.40
50464;BME280;62167;38.552;-121.478;2022-07-12T04:56:10;100788.09;;;28.58;34.01
50464;BME280;62167;38.552;-121.478;2022-07-12T04:58:36;100786.22;;;28.43;33.94
50464;BME280;62167;38.552;-121.478;2022-07-12T05:01:02;100793.72;;;28.22;34.20
50464;BME280;62167;38.552;-121.478;2022-07-12T05:03:29;100786.28;;;28.07;34.04
50464;BME280;62167;38.552;-121.478;2022-07-12T05:05:56;100792.13;;;28.01;34.06
50464;BME280;62167;38.552;-121.478;2022-07-12T05:08:22;100793.56;;;27.88;34.55
50464;BME280;62167;38.552;-121.478;2022-07-12T05:10:48;100793.00;;;27.81;34.82
50464;BME280;62167;38.552;-121.478;2022-07-12T05:13:15;100793.53;;;27.78;34.46
50464;BME280;62167;38.552;-121.478;2022-07-12T05:15:41;100802.97;;;27.72;34.90
50464;BME280;62167;38.552;-121.478;2022-07-12T05:18:07;100801.81;;;27.62;34.79
50464;BME280;62167;38.552;-121.478;2022-07-12T05:20:34;100801.56;;;27.54;35.58
50464;BME280;62167;38.552;-121.478;2022-07-12T05:23:00;100797.41;;;27.51;35.14
50464;BME280;62167;38.552;-121.478;2022-07-12T05:25:26;100806.53;;;27.47;35.22
50464;BME280;62167;38.552;-121.478;2022-07-12T05:27:53;100796.88;;;27.44;35.51
50464;BME280;62167;38.552;-121.478;2022-07-12T05:30:19;100802.38;;;27.34;35.76
50464;BME280;62167;38.552;-121.478;2022-07-12T05:32:47;100812.03;;;27.21;35.78
50464;BME280;62167;38.552;-121.478;2022-07-12T05:35:13;100811.50;;;27.14;35.56
50464;BME280;62167;38.552;-121.478;2022-07-12T05:37:39;100806.72;;;27.04;35.73
50464;BME280;62167;38.552;-121.478;2022-07-12T05:40:06;100805.91;;;27.04;36.29
50464;BME280;62167;38.552;-121.478;2022-07-12T05:42:33;100809.22;;;27.01;36.00
50464;BME280;62167;38.552;-121.478;2022-07-12T05:44:59;100807.25;;;26.91;36.01
50464;BME280;62167;38.552;-121.478;2022-07-12T05:47:25;100801.69;;;26.81;36.68
50464;BME280;62167;38.552;-121.478;2022-07-12T05:49:53;100808.03;;;26.76;36.83
50464;BME280;62167;38.552;-121.478;2022-07-12T05:52:20;100808.00;;;26.66;36.56
50464;BME280;62167;38.552;-121.478;2022-07-12T05:55:04;100807.13;;;26.60;36.73
50464;BME280;62167;38.552;-121.478;2022-07-12T05:57:31;100810.41;;;26.47;36.45
50464;BME280;62167;38.552;-121.478;2022-07-12T05:59:58;100810.88;;;26.39;36.93
50464;BME280;62167;38.552;-121.478;2022-07-12T06:02:24;100811.38;;;26.21;37.03
50464;BME280;62167;38.552;-121.478;2022-07-12T06:04:50;100803.03;;;26.16;37.10
50464;BME280;62167;38.552;-121.478;2022-07-12T06:07:17;100812.06;;;26.01;37.73
50464;BME280;62167;38.552;-121.478;2022-07-12T06:09:43;100812.28;;;25.94;37.69
50464;BME280;62167;38.552;-121.478;2022-07-12T06:12:09;100804.47;;;25.81;38.39
50464;BME280;62167;38.552;-121.478;2022-07-12T06:14:36;100806.38;;;25.75;38.44
50464;BME280;62167;38.552;-121.478;2022-07-12T06:17:02;100805.72;;;25.68;38.62
50464;BME280;62167;38.552;-121.478;2022-07-12T06:19:29;100802.94;;;25.68;38.58
50464;BME280;62167;38.552;-121.478;2022-07-12T06:21:55;100809.22;;;25.58;38.84
50464;BME280;62167;38.552;-121.478;2022-07-12T06:24:21;100811.94;;;25.53;39.59
50464;BME280;62167;38.552;-121.478;2022-07-12T06:26:48;100805.13;;;25.34;39.38
50464;BME280;62167;38.552;-121.478;2022-07-12T06:29:14;100806.78;;;25.30;39.28
50464;BME280;62167;38.552;-121.478;2022-07-12T06:31:40;100807.28;;;25.27;39.77
50464;BME280;62167;38.552;-121.478;2022-07-12T06:34:07;100804.47;;;25.22;40.24
50464;BME280;62167;38.552;-121.478;2022-07-12T06:36:33;100816.84;;;25.19;40.30
50464;BME280;62167;38.552;-121.478;2022-07-12T06:38:59;100816.56;;;25.16;41.35
50464;BME280;62167;38.552;-121.478;2022-07-12T06:41:26;100820.28;;;25.04;41.23
50464;BME280;62167;38.552;-121.478;2022-07-12T06:43:55;100820.78;;;25.01;40.46
50464;BME280;62167;38.552;-121.478;2022-07-12T06:46:21;100817.91;;;24.91;40.81
50464;BME280;62167;38.552;-121.478;2022-07-12T06:48:47;100822.25;;;24.87;41.83
50464;BME280;62167;38.552;-121.478;2022-07-12T06:51:14;100824.91;;;24.77;41.17
50464;BME280;62167;38.552;-121.478;2022-07-12T06:53:40;100816.56;;;24.72;40.86
50464;BME280;62167;38.552;-121.478;2022-07-12T06:56:06;100823.13;;;24.66;41.57
50464;BME280;62167;38.552;-121.478;2022-07-12T06:58:33;100823.63;;;24.63;41.52
50464;BME280;62167;38.552;-121.478;2022-07-12T07:00:59;100829.34;;;24.56;41.68
50464;BME280;62167;38.552;-121.478;2022-07-12T07:03:26;100825.22;;;24.37;41.45
50464;BME280;62167;38.552;-121.478;2022-07-12T07:05:52;100831.56;;;24.37;41.58
50464;BME280;62167;38.552;-121.478;2022-07-12T07:08:18;100830.13;;;24.34;42.14
50464;BME280;62167;38.552;-121.478;2022-07-12T07:10:44;100835.56;;;24.29;41.73
50464;BME280;62167;38.552;-121.478;2022-07-12T07:13:11;100832.66;;;24.19;41.71
50464;BME280;62167;38.552;-121.478;2022-07-12T07:15:40;100838.91;;;24.15;41.63
50464;BME280;62167;38.552;-121.478;2022-07-12T07:18:06;100828.94;;;24.08;42.51
50464;BME280;62167;38.552;-121.478;2022-07-12T07:20:33;100832.59;;;23.97;41.96
50464;BME280;62167;38.552;-121.478;2022-07-12T07:23:00;100841.94;;;23.96;42.17
50464;BME280;62167;38.552;-121.478;2022-07-12T07:25:26;100828.34;;;23.90;41.69
50464;BME280;62167;38.552;-121.478;2022-07-12T07:27:52;100836.09;;;23.76;42.77
50464;BME280;62167;38.552;-121.478;2022-07-12T07:30:18;100833.97;;;23.78;42.41
50464;BME280;62167;38.552;-121.478;2022-07-12T07:33:03;100828.03;;;23.69;42.59
50464;BME280;62167;38.552;-121.478;2022-07-12T07:35:29;100826.59;;;23.67;42.66
50464;BME280;62167;38.552;-121.478;2022-07-12T07:37:55;100832.84;;;23.62;43.21
50464;BME280;62167;38.552;-121.478;2022-07-12T07:40:22;100835.00;;;23.60;44.38
50464;BME280;62167;38.552;-121.478;2022-07-12T07:42:49;100837.47;;;23.45;43.29
50464;BME280;62167;38.552;-121.478;2022-07-12T07:45:15;100834.38;;;23.41;43.11
50464;BME280;62167;38.552;-121.478;2022-07-12T07:47:46;100831.53;;;23.36;43.42
50464;BME280;62167;38.552;-121.478;2022-07-12T07:50:14;100828.03;;;23.24;43.68
50464;BME280;62167;38.552;-121.478;2022-07-12T07:52:40;100830.22;;;23.22;44.03
50464;BME280;62167;38.552;-121.478;2022-07-12T07:55:07;100829.03;;;23.18;43.46
50464;BME280;62167;38.552;-121.478;2022-07-12T07:57:33;100830.13;;;23.17;44.01
50464;BME280;62167;38.552;-121.478;2022-07-12T07:59:59;100828.31;;;23.11;44.37
50464;BME280;62167;38.552;-121.478;2022-07-12T08:02:25;100832.91;;;23.05;44.61
50464;BME280;62167;38.552;-121.478;2022-07-12T08:04:52;100836.38;;;23.00;44.55
50464;BME280;62167;38.552;-121.478;2022-07-12T08:07:18;100831.72;;;23.01;44.94
50464;BME280;62167;38.552;-121.478;2022-07-12T08:09:44;100840.72;;;22.96;44.36
50464;BME280;62167;38.552;-121.478;2022-07-12T08:12:11;100834.63;;;22.94;44.62
50464;BME280;62167;38.552;-121.478;2022-07-12T08:14:37;100837.00;;;22.91;44.64
50464;BME280;62167;38.552;-121.478;2022-07-12T08:17:03;100834.03;;;22.80;44.98
50464;BME280;62167;38.552;-121.478;2022-07-12T08:19:30;100836.53;;;22.82;44.99
50464;BME280;62167;38.552;-121.478;2022-07-12T08:21:56;100831.53;;;22.79;45.05
50464;BME280;62167;38.552;-121.478;2022-07-12T08:24:22;100830.13;;;22.76;46.00
50464;BME280;62167;38.552;-121.478;2022-07-12T08:26:49;100826.03;;;22.79;45.46
50464;BME280;62167;38.552;-121.478;2022-07-12T08:29:16;100827.00;;;22.73;45.08
50464;BME280;62167;38.552;-121.478;2022-07-12T08:31:42;100824.75;;;22.70;45.19
50464;BME280;62167;38.552;-121.478;2022-07-12T08:34:09;100834.69;;;22.71;45.03
50464;BME280;62167;38.552;-121.478;2022-07-12T08:36:35;100825.00;;;22.68;45.32
50464;BME280;62167;38.552;-121.478;2022-07-12T08:39:02;100822.41;;;22.62;45.39
50464;BME280;62167;38.552;-121.478;2022-07-12T08:41:28;100821.06;;;22.64;45.11
50464;BME280;62167;38.552;-121.478;2022-07-12T08:43:55;100827.63;;;22.63;44.83
50464;BME280;62167;38.552;-121.478;2022-07-12T08:46:21;100825.38;;;22.60;45.96
50464;BME280;62167;38.552;-121.478;2022-07-12T08:48:48;100828.38;;;22.59;46.21
50464;BME280;62167;38.552;-121.478;2022-07-12T08:51:21;100830.16;;;22.53;45.76
50464;BME280;62167;38.552;-121.478;2022-07-12T08:53:50;100832.81;;;22.48;45.97
50464;BME280;62167;38.552;-121.478;2022-07-12T08:56:37;100832.94;;;22.41;46.41
50464;BME280;62167;38.552;-121.478;2022-07-12T08:59:14;100828.50;;;22.40;46.35
50464;BME280;62167;38.552;-121.478;2022-07-12T10:10:33;100827.47;;;20.81;50.90
50464;BME280;62167;38.552;-121.478;2022-07-12T10:13:01;100829.25;;;20.75;50.84
50464;BME280;62167;38.552;-121.478;2022-07-12T10:15:30;100834.19;;;20.66;50.87
50464;BME280;62167;38.552;-121.478;2022-07-12T10:18:33;100830.59;;;20.66;51.06
50464;BME280;62167;38.552;-121.478;2022-07-12T10:20:59;100828.13;;;20.64;50.93
50464;BME280;62167;38.552;-121.478;2022-07-12T10:23:33;100826.66;;;20.62;51.06
50464;BME280;62167;38.552;-121.478;2022-07-12T10:29:19;100830.41;;;20.49;51.80
50464;BME280;62167;38.552;-121.478;2022-07-12T10:31:47;100825.13;;;20.47;52.29
50464;BME280;62167;38.552;-121.478;2022-07-12T10:34:22;100827.47;;;20.44;52.45
50464;BME280;62167;38.552;-121.478;2022-07-12T10:44:39;100824.56;;;20.20;54.05
50464;BME280;62167;38.552;-121.478;2022-07-12T10:47:07;100834.25;;;20.23;53.52
50464;BME280;62167;38.552;-121.478;2022-07-12T10:49:35;100830.28;;;20.19;53.26
50464;BME280;62167;38.552;-121.478;2022-07-12T10:54:41;100820.13;;;20.01;53.74
50464;BME280;62167;38.552;-121.478;2022-07-12T10:57:08;100825.16;;;20.04;54.19
50464;BME280;62167;38.552;-121.478;2022-07-12T10:59:36;100826.00;;;20.05;54.22
50464;BME280;62167;38.552;-121.478;2022-07-12T11:02:03;100821.84;;;20.02;54.25
50464;BME280;62167;38.552;-121.478;2022-07-12T11:04:31;100820.75;;;20.03;54.48
50464;BME280;62167;38.552;-121.478;2022-07-12T11:07:01;100825.75;;;19.88;54.55
50464;BME280;62167;38.552;-121.478;2022-07-12T11:09:28;100824.50;;;19.84;54.60
50464;BME280;62167;38.552;-121.478;2022-07-12T11:11:54;100822.88;;;19.76;55.04
50464;BME280;62167;38.552;-121.478;2022-07-12T11:14:28;100826.69;;;19.75;55.27
50464;BME280;62167;38.552;-121.478;2022-07-12T11:16:59;100828.66;;;19.68;55.58
50464;BME280;62167;38.552;-121.478;2022-07-12T11:19:28;100829.31;;;19.63;56.29
50464;BME280;62167;38.552;-121.478;2022-07-12T11:21:55;100830.38;;;19.56;56.19
50464;BME280;62167;38.552;-121.478;2022-07-12T11:24:27;100829.38;;;19.50;56.70
50464;BME280;62167;38.552;-121.478;2022-07-12T11:26:54;100824.47;;;19.34;57.01
50464;BME280;62167;38.552;-121.478;2022-07-12T11:29:21;100820.50;;;19.30;57.17
50464;BME280;62167;38.552;-121.478;2022-07-12T11:31:49;100824.06;;;19.30;57.20
50464;BME280;62167;38.552;-121.478;2022-07-12T11:34:25;100828.31;;;19.26;57.61
50464;BME280;62167;38.552;-121.478;2022-07-12T11:36:59;100820.13;;;19.19;57.77
50464;BME280;62167;38.552;-121.478;2022-07-12T11:39:36;100829.25;;;19.07;58.42
50464;BME280;62167;38.552;-121.478;2022-07-12T11:42:03;100822.38;;;18.98;58.96
50464;BME280;62167;38.552;-121.478;2022-07-12T11:44:48;100825.16;;;18.91;58.70
50464;BME280;62167;38.552;-121.478;2022-07-12T11:47:19;100827.00;;;18.90;58.95
50464;BME280;62167;38.552;-121.478;2022-07-12T11:49:47;100828.53;;;18.86;59.17
50464;BME280;62167;38.552;-121.478;2022-07-12T11:52:14;100831.50;;;18.78;59.48
50464;BME280;62167;38.552;-121.478;2022-07-12T11:54:44;100823.13;;;18.73;59.56
50464;BME280;62167;38.552;-121.478;2022-07-12T11:57:12;100830.88;;;18.76;59.41
50464;BME280;62167;38.552;-121.478;2022-07-12T11:59:38;100826.91;;;18.72;59.61
50464;BME280;62167;38.552;-121.478;2022-07-12T12:02:11;100828.16;;;18.63;59.96
50464;BME280;62167;38.552;-121.478;2022-07-12T12:07:14;100827.56;;;18.54;60.50
50464;BME280;62167;38.552;-121.478;2022-07-12T12:10:05;100829.69;;;18.52;60.43
50464;BME280;62167;38.552;-121.478;2022-07-12T12:12:37;100832.63;;;18.51;60.63
50464;BME280;62167;38.552;-121.478;2022-07-12T12:15:08;100828.25;;;18.43;61.12
50464;BME280;62167;38.552;-121.478;2022-07-12T12:17:35;100829.75;;;18.32;61.11
50464;BME280;62167;38.552;-121.478;2022-07-12T12:20:11;100841.50;;;18.33;61.43
50464;BME280;62167;38.552;-121.478;2022-07-12T12:22:37;100839.84;;;18.25;61.76
50464;BME280;62167;38.552;-121.478;2022-07-12T12:25:05;100840.47;;;18.21;61.95
50464;BME280;62167;38.552;-121.478;2022-07-12T12:27:31;100837.75;;;18.14;61.84
50464;BME280;62167;38.552;-121.478;2022-07-12T12:30:04;100840.72;;;18.06;62.28
50464;BME280;62167;38.552;-121.478;2022-07-12T12:32:49;100844.47;;;17.98;62.74
50464;BME280;62167;38.552;-121.478;2022-07-12T12:35:19;100854.78;;;17.89;62.90
50464;BME280;62167;38.552;-121.478;2022-07-12T12:37:50;100849.75;;;17.80;63.75
50464;BME280;62167;38.552;-121.478;2022-07-12T12:40:24;100853.31;;;17.87;63.13
50464;BME280;62167;38.552;-121.478;2022-07-12T12:42:51;100854.16;;;17.81;63.39
50464;BME280;62167;38.552;-121.478;2022-07-12T12:45:23;100860.22;;;17.83;63.35
50464;BME280;62167;38.552;-121.478;2022-07-12T12:47:58;100860.19;;;17.70;63.81
50464;BME280;62167;38.552;-121.478;2022-07-12T12:50:39;100862.72;;;17.71;64.12
50464;BME280;62167;38.552;-121.478;2022-07-12T12:53:28;100861.66;;;17.59;64.33
50464;BME280;62167;38.552;-121.478;2022-07-12T12:55:55;100859.56;;;17.54;64.55
50464;BME280;62167;38.552;-121.478;2022-07-12T12:58:23;100860.38;;;17.48;64.34
50464;BME280;62167;38.552;-121.478;2022-07-12T13:00:54;100863.97;;;17.49;64.82
50464;BME280;62167;38.552;-121.478;2022-07-12T13:03:21;100853.47;;;17.39;65.19
50464;BME280;62167;38.552;-121.478;2022-07-12T13:05:50;100861.81;;;17.31;65.28
50464;BME280;62167;38.552;-121.478;2022-07-12T13:08:16;100866.00;;;17.27;65.51
50464;BME280;62167;38.552;-121.478;2022-07-12T13:10:44;100866.81;;;17.21;65.83
50464;BME280;62167;38.552;-121.478;2022-07-12T13:13:11;100863.44;;;17.12;66.26
50464;BME280;62167;38.552;-121.478;2022-07-12T13:15:41;100871.44;;;17.14;66.21
50464;BME280;62167;38.552;-121.478;2022-07-12T13:18:07;100874.16;;;17.14;66.67
50464;BME280;62167;38.552;-121.478;2022-07-12T13:20:33;100875.16;;;17.12;66.31
50464;BME280;62167;38.552;-121.478;2022-07-12T13:23:00;100870.97;;;17.10;66.94
50464;BME280;62167;38.552;-121.478;2022-07-12T13:25:27;100877.03;;;16.99;67.32
50464;BME280;62167;38.552;-121.478;2022-07-12T13:27:53;100880.97;;;16.96;67.66
50464;BME280;62167;38.552;-121.478;2022-07-12T13:30:20;100886.84;;;16.93;67.81
50464;BME280;62167;38.552;-121.478;2022-07-12T13:32:47;100887.91;;;16.99;67.61
50464;BME280;62167;38.552;-121.478;2022-07-12T13:35:13;100899.34;;;16.88;68.28
50464;BME280;62167;38.552;-121.478;2022-07-12T13:37:41;100899.03;;;16.69;68.74
50464;BME280;62167;38.552;-121.478;2022-07-12T13:40:09;100895.28;;;16.70;68.58
50464;BME280;62167;38.552;-121.478;2022-07-12T13:42:49;100900.53;;;16.72;68.64
50464;BME280;62167;38.552;-121.478;2022-07-12T13:45:18;100901.97;;;16.68;68.75
50464;BME280;62167;38.552;-121.478;2022-07-12T13:47:45;100897.97;;;16.64;69.12
50464;BME280;62167;38.552;-121.478;2022-07-12T13:50:16;100905.72;;;16.67;69.11
50464;BME280;62167;38.552;-121.478;2022-07-12T13:52:44;100900.47;;;16.65;69.08